sensor_id;sensor_type;location;lat;lon;timestamp;temperature;humidity
66670;DHT22;53568;52.164;4.472;2022-09-12T00:00:48;20.19;69.83
66670;DHT22;53568;52.164;4.472;2022-09-12T00:03:14;20.21;69.80
66670;DHT22;53568;52.164;4.472;2022-09-12T00:05:44;20.17;69.68
66670;DHT22;53568;52.164;4.472;2022-09-12T00:08:10;20.14;69.80
66670;DHT22;53568;52.164;4.472;2022-09-12T00:10:39;20.12;69.72
66670;DHT22;53568;52.164;4.472;2022-09-12T00:13:06;20.12;69.74
66670;DHT22;53568;52.164;4.472;2022-09-12T00:15:37;20.09;69.84
66670;DHT22;53568;52.164;4.472;2022-09-12T00:18:03;20.09;69.90
66670;DHT22;53568;52.164;4.472;2022-09-12T00:20:28;20.09;69.71
66670;DHT22;53568;52.164;4.472;2022-09-12T00:22:54;20.08;69.70
66670;DHT22;53568;52.164;4.472;2022-09-12T00:25:19;20.08;69.57
66670;DHT22;53568;52.164;4.472;2022-09-12T00:27:45;20.09;69.53
66670;DHT22;53568;52.164;4.472;2022-09-12T00:30:10;19.97;69.79
66670;DHT22;53568;52.164;4.472;2022-09-12T00:32:36;19.92;70.09
66670;DHT22;53568;52.164;4.472;2022-09-12T00:35:01;19.91;70.00
66670;DHT22;53568;52.164;4.472;2022-09-12T00:37:27;19.91;69.97
66670;DHT22;53568;52.164;4.472;2022-09-12T00:39:53;19.92;69.89
66670;DHT22;53568;52.164;4.472;2022-09-12T00:42:18;19.92;69.68
66670;DHT22;53568;52.164;4.472;2022-09-12T00:44:47;19.94;69.49
66670;DHT22;53568;52.164;4.472;2022-09-12T00:47:32;19.85;69.86
66670;DHT22;53568;52.164;4.472;2022-09-12T00:50:07;19.77;70.19
66670;DHT22;53568;52.164;4.472;2022-09-12T00:53:02;19.77;70.29
66670;DHT22;53568;52.164;4.472;2022-09-12T00:55:40;19.77;70.16
66670;DHT22;53568;52.164;4.472;2022-09-12T00:58:28;19.75;70.22
66670;DHT22;53568;52.164;4.472;2022-09-12T01:00:56;19.71;70.20
66670;DHT22;53568;52.164;4.472;2022-09-12T01:03:24;19.65;70.28
66670;DHT22;53568;52.164;4.472;2022-09-12T01:06:07;19.60;70.51
66670;DHT22;53568;52.164;4.472;2022-09-12T01:08:37;19.61;70.38
66670;DHT22;53568;52.164;4.472;2022-09-12T01:11:05;19.60;70.52
66670;DHT22;53568;52.164;4.472;2022-09-12T01:13:33;19.54;70.21
66670;DHT22;53568;52.164;4.472;2022-09-12T01:16:03;19.50;70.35
66670;DHT22;53568;52.164;4.472;2022-09-12T01:33:05;19.47;69.95
66670;DHT22;53568;52.164;4.472;2022-09-12T01:41:24;19.46;70.15
66670;DHT22;53568;52.164;4.472;2022-09-12T01:44:02;19.49;69.96
66670;DHT22;53568;52.164;4.472;2022-09-12T01:46:58;19.44;69.84
66670;DHT22;53568;52.164;4.472;2022-09-12T01:49:49;19.54;69.62
66670;DHT22;53568;52.164;4.472;2022-09-12T01:52:44;19.47;69.86
66670;DHT22;53568;52.164;4.472;2022-09-12T01:55:24;19.49;69.84
66670;DHT22;53568;52.164;4.472;2022-09-12T01:58:11;19.46;69.66
66670;DHT22;53568;52.164;4.472;2022-09-12T02:00:53;19.37;70.06
66670;DHT22;53568;52.164;4.472;2022-09-12T02:03:30;19.33;70.40
66670;DHT22;53568;52.164;4.472;2022-09-12T02:06:07;19.33;70.48
66670;DHT22;53568;52.164;4.472;2022-09-12T02:08:45;19.33;70.42
66670;DHT22;53568;52.164;4.472;2022-09-12T02:11:12;19.33;70.41
66670;DHT22;53568;52.164;4.472;2022-09-12T02:16:13;19.35;70.21
66670;DHT22;53568;52.164;4.472;2022-09-12T02:18:46;19.33;70.22
66670;DHT22;53568;52.164;4.472;2022-09-12T02:21:18;19.33;70.06
66670;DHT22;53568;52.164;4.472;2022-09-12T02:23:53;19.33;69.97
66670;DHT22;53568;52.164;4.472;2022-09-12T02:26:28;19.19;70.47
66670;DHT22;53568;52.164;4.472;2022-09-12T02:28:56;19.17;70.12
66670;DHT22;53568;52.164;4.472;2022-09-12T02:31:36;19.10;70.52
66670;DHT22;53568;52.164;4.472;2022-09-12T02:37:00;19.13;70.72
66670;DHT22;53568;52.164;4.472;2022-09-12T02:39:27;19.20;70.53
66670;DHT22;53568;52.164;4.472;2022-09-12T02:41:56;19.26;70.32
66670;DHT22;53568;52.164;4.472;2022-09-12T02:44:26;19.21;70.27
66670;DHT22;53568;52.164;4.472;2022-09-12T02:47:22;19.27;69.96
66670;DHT22;53568;52.164;4.472;2022-09-12T02:49:50;19.30;69.94
66670;DHT22;53568;52.164;4.472;2022-09-12T02:52:16;19.30;70.01
66670;DHT22;53568;52.164;4.472;2022-09-12T02:54:43;19.33;69.83
66670;DHT22;53568;52.164;4.472;2022-09-12T02:57:19;19.35;69.63
66670;DHT22;53568;52.164;4.472;2022-09-12T02:59:47;19.35;69.37
66670;DHT22;53568;52.164;4.472;2022-09-12T03:05:36;19.27;69.45
66670;DHT22;53568;52.164;4.472;2022-09-12T03:11:07;19.23;69.68
66670;DHT22;53568;52.164;4.472;2022-09-12T03:16:20;19.20;69.61
66670;DHT22;53568;52.164;4.472;2022-09-12T03:19:24;19.17;69.72
66670;DHT22;53568;52.164;4.472;2022-09-12T03:22:13;19.23;69.79
66670;DHT22;53568;52.164;4.472;2022-09-12T03:24:49;19.16;69.86
66670;DHT22;53568;52.164;4.472;2022-09-12T03:27:22;19.17;70.00
66670;DHT22;53568;52.164;4.472;2022-09-12T03:29:52;19.23;70.10
66670;DHT22;53568;52.164;4.472;2022-09-12T03:32:18;19.27;70.07
66670;DHT22;53568;52.164;4.472;2022-09-12T03:34:44;19.23;69.99
66670;DHT22;53568;52.164;4.472;2022-09-12T03:37:09;19.17;69.70
66670;DHT22;53568;52.164;4.472;2022-09-12T03:39:35;19.16;69.62
66670;DHT22;53568;52.164;4.472;2022-09-12T03:42:00;19.14;69.71
66670;DHT22;53568;52.164;4.472;2022-09-12T03:44:26;19.13;69.72
66670;DHT22;53568;52.164;4.472;2022-09-12T03:46:51;19.16;69.54
66670;DHT22;53568;52.164;4.472;2022-09-12T03:49:17;19.14;69.53
66670;DHT22;53568;52.164;4.472;2022-09-12T03:51:42;19.19;69.33
66670;DHT22;53568;52.164;4.472;2022-09-12T03:54:09;19.16;69.54
66670;DHT22;53568;52.164;4.472;2022-09-12T03:56:35;19.19;69.38
66670;DHT22;53568;52.164;4.472;2022-09-12T03:59:04;19.19;69.36
66670;DHT22;53568;52.164;4.472;2022-09-12T04:01:31;19.17;69.30
66670;DHT22;53568;52.164;4.472;2022-09-12T04:03:56;19.13;69.47
66670;DHT22;53568;52.164;4.472;2022-09-12T04:06:22;19.06;69.73
66670;DHT22;53568;52.164;4.472;2022-09-12T04:08:49;19.04;69.79
66670;DHT22;53568;52.164;4.472;2022-09-12T04:11:15;18.99;69.99
66670;DHT22;53568;52.164;4.472;2022-09-12T04:13:43;18.99;70.06
66670;DHT22;53568;52.164;4.472;2022-09-12T04:16:10;18.99;70.09
66670;DHT22;53568;52.164;4.472;2022-09-12T04:18:37;18.96;70.15
66670;DHT22;53568;52.164;4.472;2022-09-12T04:21:07;18.95;70.16
66670;DHT22;53568;52.164;4.472;2022-09-12T04:23:34;18.93;70.12
66670;DHT22;53568;52.164;4.472;2022-09-12T04:26:02;18.86;70.24
66670;DHT22;53568;52.164;4.472;2022-09-12T04:28:31;18.86;70.22
66670;DHT22;53568;52.164;4.472;2022-09-12T04:31:15;18.79;70.35
66670;DHT22;53568;52.164;4.472;2022-09-12T04:33:43;18.79;70.31
66670;DHT22;53568;52.164;4.472;2022-09-12T04:36:12;18.73;70.49
66670;DHT22;53568;52.164;4.472;2022-09-12T04:38:46;18.73;70.62
66670;DHT22;53568;52.164;4.472;2022-09-12T04:41:18;18.75;70.56
66670;DHT22;53568;52.164;4.472;2022-09-12T04:43:45;18.77;70.65
66670;DHT22;53568;52.164;4.472;2022-09-12T04:46:13;18.77;70.37
66670;DHT22;53568;52.164;4.472;2022-09-12T04:48:40;18.75;70.34
66670;DHT22;53568;52.164;4.472;2022-09-12T04:51:18;18.73;70.54
66670;DHT22;53568;52.164;4.472;2022-09-12T04:53:48;18.75;70.55
66670;DHT22;53568;52.164;4.472;2022-09-12T04:56:14;18.70;70.80
66670;DHT22;53568;52.164;4.472;2022-09-12T04:58:40;18.72;70.88
66670;DHT22;53568;52.164;4.472;2022-09-12T05:01:15;18.66;70.89
66670;DHT22;53568;52.164;4.472;2022-09-12T05:03:42;18.65;70.99
66670;DHT22;53568;52.164;4.472;2022-09-12T05:06:14;18.63;71.19
66670;DHT22;53568;52.164;4.472;2022-09-12T05:08:40;18.63;71.27
66670;DHT22;53568;52.164;4.472;2022-09-12T05:11:09;18.69;71.22
66670;DHT22;53568;52.164;4.472;2022-09-12T05:13:36;18.62;71.36
66670;DHT22;53568;52.164;4.472;2022-09-12T05:16:04;18.63;71.46
66670;DHT22;53568;52.164;4.472;2022-09-12T05:18:31;18.53;71.65
66670;DHT22;53568;52.164;4.472;2022-09-12T05:21:03;18.48;71.95
66670;DHT22;53568;52.164;4.472;2022-09-12T05:23:29;18.49;71.88
66670;DHT22;53568;52.164;4.472;2022-09-12T05:25:57;18.42;72.31
66670;DHT22;53568;52.164;4.472;2022-09-12T05:28:27;18.43;72.32
66670;DHT22;53568;52.164;4.472;2022-09-12T05:31:12;18.43;72.28
66670;DHT22;53568;52.164;4.472;2022-09-12T05:33:40;18.45;72.28
66670;DHT22;53568;52.164;4.472;2022-09-12T05:36:12;18.43;72.39
66670;DHT22;53568;52.164;4.472;2022-09-12T05:38:38;18.32;72.81
66670;DHT22;53568;52.164;4.472;2022-09-12T05:41:09;18.33;73.17
66670;DHT22;53568;52.164;4.472;2022-09-12T05:43:36;18.33;73.07
66670;DHT22;53568;52.164;4.472;2022-09-12T05:46:16;18.32;73.15
66670;DHT22;53568;52.164;4.472;2022-09-12T05:48:44;18.24;73.05
66670;DHT22;53568;52.164;4.472;2022-09-12T05:51:13;18.18;73.48
66670;DHT22;53568;52.164;4.472;2022-09-12T05:53:40;18.11;73.70
66670;DHT22;53568;52.164;4.472;2022-09-12T05:56:12;18.09;73.78
66670;DHT22;53568;52.164;4.472;2022-09-12T05:58:40;18.05;73.85
66670;DHT22;53568;52.164;4.472;2022-09-12T06:01:08;18.08;73.92
66670;DHT22;53568;52.164;4.472;2022-09-12T06:03:41;18.16;73.76
66670;DHT22;53568;52.164;4.472;2022-09-12T06:06:08;18.26;73.23
66670;DHT22;53568;52.164;4.472;2022-09-12T06:08:34;18.25;73.09
66670;DHT22;53568;52.164;4.472;2022-09-12T06:11:02;18.29;72.98
66670;DHT22;53568;52.164;4.472;2022-09-12T06:13:32;18.32;73.11
66670;DHT22;53568;52.164;4.472;2022-09-12T06:16:03;18.36;73.05
66670;DHT22;53568;52.164;4.472;2022-09-12T06:18:30;18.46;73.00
66670;DHT22;53568;52.164;4.472;2022-09-12T06:20:55;18.48;72.66
66670;DHT22;53568;52.164;4.472;2022-09-12T06:23:21;18.55;72.44
66670;DHT22;53568;52.164;4.472;2022-09-12T06:25:47;18.55;72.41
66670;DHT22;53568;52.164;4.472;2022-09-12T06:28:14;18.62;72.32
66670;DHT22;53568;52.164;4.472;2022-09-12T06:30:40;18.67;72.18
66670;DHT22;53568;52.164;4.472;2022-09-12T06:33:06;18.75;72.25
66670;DHT22;53568;52.164;4.472;2022-09-12T06:35:35;18.85;72.19
66670;DHT22;53568;52.164;4.472;2022-09-12T06:38:01;18.95;71.89
66670;DHT22;53568;52.164;4.472;2022-09-12T06:40:26;19.10;71.22
66670;DHT22;53568;52.164;4.472;2022-09-12T06:42:52;19.07;71.24
66670;DHT22;53568;52.164;4.472;2022-09-12T06:45:17;18.97;71.43
66670;DHT22;53568;52.164;4.472;2022-09-12T06:47:44;19.06;71.44
66670;DHT22;53568;52.164;4.472;2022-09-12T06:50:10;19.14;71.12
66670;DHT22;53568;52.164;4.472;2022-09-12T06:52:35;19.24;70.83
66670;DHT22;53568;52.164;4.472;2022-09-12T06:55:01;19.28;70.59
66670;DHT22;53568;52.164;4.472;2022-09-12T06:57:26;19.28;70.64
66670;DHT22;53568;52.164;4.472;2022-09-12T06:59:55;19.35;70.41
66670;DHT22;53568;52.164;4.472;2022-09-12T07:02:20;19.44;69.99
66670;DHT22;53568;52.164;4.472;2022-09-12T07:04:46;19.47;70.17
66670;DHT22;53568;52.164;4.472;2022-09-12T07:07:11;19.46;70.27
66670;DHT22;53568;52.164;4.472;2022-09-12T07:09:37;19.53;70.13
66670;DHT22;53568;52.164;4.472;2022-09-12T07:12:02;19.49;70.23
66670;DHT22;53568;52.164;4.472;2022-09-12T07:14:29;19.54;70.39
66670;DHT22;53568;52.164;4.472;2022-09-12T07:16:54;19.60;70.27
66670;DHT22;53568;52.164;4.472;2022-09-12T07:19:20;19.67;70.21
66670;DHT22;53568;52.164;4.472;2022-09-12T07:21:45;19.75;70.09
66670;DHT22;53568;52.164;4.472;2022-09-12T07:24:11;19.81;70.21
66670;DHT22;53568;52.164;4.472;2022-09-12T07:26:38;19.87;70.19
66670;DHT22;53568;52.164;4.472;2022-09-12T07:29:04;19.79;70.41
66670;DHT22;53568;52.164;4.472;2022-09-12T07:31:29;19.98;70.07
66670;DHT22;53568;52.164;4.472;2022-09-12T07:33:55;20.17;69.72
66670;DHT22;53568;52.164;4.472;2022-09-12T07:36:23;20.18;70.07
66670;DHT22;53568;52.164;4.472;2022-09-12T07:38:54;20.22;70.01
66670;DHT22;53568;52.164;4.472;2022-09-12T07:41:23;20.38;69.54
66670;DHT22;53568;52.164;4.472;2022-09-12T07:43:54;20.48;69.06
66670;DHT22;53568;52.164;4.472;2022-09-12T07:46:23;20.49;69.11
66670;DHT22;53568;52.164;4.472;2022-09-12T07:48:54;20.49;69.37
66670;DHT22;53568;52.164;4.472;2022-09-12T07:51:22;20.52;69.39
66670;DHT22;53568;52.164;4.472;2022-09-12T07:53:47;20.62;69.31
66670;DHT22;53568;52.164;4.472;2022-09-12T07:56:14;20.75;68.99
66670;DHT22;53568;52.164;4.472;2022-09-12T07:58:41;20.73;68.93
66670;DHT22;53568;52.164;4.472;2022-09-12T08:01:15;20.71;68.83
66670;DHT22;53568;52.164;4.472;2022-09-12T08:03:43;20.77;68.68
66670;DHT22;53568;52.164;4.472;2022-09-12T08:06:11;20.87;68.53
66670;DHT22;53568;52.164;4.472;2022-09-12T08:08:39;20.92;68.35
66670;DHT22;53568;52.164;4.472;2022-09-12T08:11:10;21.06;67.66
66670;DHT22;53568;52.164;4.472;2022-09-12T08:13:38;21.06;66.72
66670;DHT22;53568;52.164;4.472;2022-09-12T08:16:12;20.99;67.11
66670;DHT22;53568;52.164;4.472;2022-09-12T08:18:39;21.06;66.94
66670;DHT22;53568;52.164;4.472;2022-09-12T08:21:26;21.02;67.00
66670;DHT22;53568;52.164;4.472;2022-09-12T08:23:56;21.17;67.06
66670;DHT22;53568;52.164;4.472;2022-09-12T08:26:23;21.26;67.07
66670;DHT22;53568;52.164;4.472;2022-09-12T08:28:50;21.37;66.19
66670;DHT22;53568;52.164;4.472;2022-09-12T08:31:18;21.33;65.89
66670;DHT22;53568;52.164;4.472;2022-09-12T08:33:44;21.26;66.40
66670;DHT22;53568;52.164;4.472;2022-09-12T08:36:14;21.20;66.98
66670;DHT22;53568;52.164;4.472;2022-09-12T08:38:42;21.36;66.43
66670;DHT22;53568;52.164;4.472;2022-09-12T08:46:50;21.53;65.64
66670;DHT22;53568;52.164;4.472;2022-09-12T08:55:05;21.67;65.32
66670;DHT22;53568;52.164;4.472;2022-09-12T08:57:31;21.82;64.79
66670;DHT22;53568;52.164;4.472;2022-09-12T09:00:02;21.70;65.24
66670;DHT22;53568;52.164;4.472;2022-09-12T09:16:30;22.11;64.16
66670;DHT22;53568;52.164;4.472;2022-09-12T09:19:03;22.26;63.38
66670;DHT22;53568;52.164;4.472;2022-09-12T09:24:14;22.38;63.06
66670;DHT22;53568;52.164;4.472;2022-09-12T09:27:04;22.46;63.13
66670;DHT22;53568;52.164;4.472;2022-09-12T09:29:45;22.44;63.29
66670;DHT22;53568;52.164;4.472;2022-09-12T09:32:26;22.46;62.89
66670;DHT22;53568;52.164;4.472;2022-09-12T09:34:53;22.49;62.65
66670;DHT22;53568;52.164;4.472;2022-09-12T09:37:28;22.55;63.04
66670;DHT22;53568;52.164;4.472;2022-09-12T09:43:05;22.77;61.21
66670;DHT22;53568;52.164;4.472;2022-09-12T09:45:32;22.83;60.62
66670;DHT22;53568;52.164;4.472;2022-09-12T09:48:18;22.83;61.20
66670;DHT22;53568;52.164;4.472;2022-09-12T09:50:47;22.77;60.70
66670;DHT22;53568;52.164;4.472;2022-09-12T09:53:39;22.75;61.04
66670;DHT22;53568;52.164;4.472;2022-09-12T09:56:30;22.73;61.19
66670;DHT22;53568;52.164;4.472;2022-09-12T09:59:17;22.68;62.03
66670;DHT22;53568;52.164;4.472;2022-09-12T10:04:55;22.90;60.20
66670;DHT22;53568;52.164;4.472;2022-09-12T10:07:22;22.83;60.21
66670;DHT22;53568;52.164;4.472;2022-09-12T10:12:39;22.69;59.70
66670;DHT22;53568;52.164;4.472;2022-09-12T10:15:24;22.62;59.55
66670;DHT22;53568;52.164;4.472;2022-09-12T10:17:54;22.75;59.37
66670;DHT22;53568;52.164;4.472;2022-09-12T10:20:39;22.83;58.94
66670;DHT22;53568;52.164;4.472;2022-09-12T10:25:51;22.92;58.56
66670;DHT22;53568;52.164;4.472;2022-09-12T10:28:24;23.02;59.08
66670;DHT22;53568;52.164;4.472;2022-09-12T10:30:54;23.03;58.68
66670;DHT22;53568;52.164;4.472;2022-09-12T10:33:23;23.13;58.25
66670;DHT22;53568;52.164;4.472;2022-09-12T10:35:52;23.19;57.44
66670;DHT22;53568;52.164;4.472;2022-09-12T10:38:29;23.28;57.55
66670;DHT22;53568;52.164;4.472;2022-09-12T10:41:02;23.36;56.51
66670;DHT22;53568;52.164;4.472;2022-09-12T10:43:34;23.37;56.90
66670;DHT22;53568;52.164;4.472;2022-09-12T10:48:42;23.50;54.93
66670;DHT22;53568;52.164;4.472;2022-09-12T10:51:28;23.64;55.29
66670;DHT22;53568;52.164;4.472;2022-09-12T10:53:56;23.54;54.68
66670;DHT22;53568;52.164;4.472;2022-09-12T10:56:33;23.68;55.05
66670;DHT22;53568;52.164;4.472;2022-09-12T11:02:14;23.64;55.78
66670;DHT22;53568;52.164;4.472;2022-09-12T11:13:10;23.82;53.86
66670;DHT22;53568;52.164;4.472;2022-09-12T11:15:59;24.01;53.93
66670;DHT22;53568;52.164;4.472;2022-09-12T11:27:37;24.07;55.08
66670;DHT22;53568;52.164;4.472;2022-09-12T11:30:16;24.18;55.03
66670;DHT22;53568;52.164;4.472;2022-09-12T11:35:49;24.42;54.55
66670;DHT22;53568;52.164;4.472;2022-09-12T11:38:39;24.48;54.55
66670;DHT22;53568;52.164;4.472;2022-09-12T11:44:03;24.58;54.62
66670;DHT22;53568;52.164;4.472;2022-09-12T11:46:37;24.62;54.41
66670;DHT22;53568;52.164;4.472;2022-09-12T11:52:35;24.64;52.48
66670;DHT22;53568;52.164;4.472;2022-09-12T11:54:42;24.68;51.98
66670;DHT22;53568;52.164;4.472;2022-09-12T11:57:35;24.68;51.74
66670;DHT22;53568;52.164;4.472;2022-09-12T12:00:19;24.69;52.33
66670;DHT22;53568;52.164;4.472;2022-09-12T12:03:22;24.80;51.91
66670;DHT22;53568;52.164;4.472;2022-09-12T12:08:31;24.75;50.69
66670;DHT22;53568;52.164;4.472;2022-09-12T12:11:01;24.64;51.41
66670;DHT22;53568;52.164;4.472;2022-09-12T12:13:51;24.68;51.88
66670;DHT22;53568;52.164;4.472;2022-09-12T12:16:27;24.71;51.84
66670;DHT22;53568;52.164;4.472;2022-09-12T12:18:57;24.58;51.86
66670;DHT22;53568;52.164;4.472;2022-09-12T12:21:42;24.66;51.30
66670;DHT22;53568;52.164;4.472;2022-09-12T12:29:11;24.87;50.39
66670;DHT22;53568;52.164;4.472;2022-09-12T12:34:32;24.99;49.84
66670;DHT22;53568;52.164;4.472;2022-09-12T12:40:09;25.05;51.18
66670;DHT22;53568;52.164;4.472;2022-09-12T12:47:50;25.15;51.81
66670;DHT22;53568;52.164;4.472;2022-09-12T12:53:03;25.27;51.00
66670;DHT22;53568;52.164;4.472;2022-09-12T12:55:45;25.24;50.70
66670;DHT22;53568;52.164;4.472;2022-09-12T12:58:33;25.36;49.87
66670;DHT22;53568;52.164;4.472;2022-09-12T13:03:41;25.06;49.49
66670;DHT22;53568;52.164;4.472;2022-09-12T13:09:07;25.26;50.33
66670;DHT22;53568;52.164;4.472;2022-09-12T13:11:40;25.23;50.50
66670;DHT22;53568;52.164;4.472;2022-09-12T13:14:36;25.40;49.93
66670;DHT22;53568;52.164;4.472;2022-09-12T13:17:21;25.49;50.44
66670;DHT22;53568;52.164;4.472;2022-09-12T13:19:53;25.47;50.10
66670;DHT22;53568;52.164;4.472;2022-09-12T13:22:22;25.39;49.88
66670;DHT22;53568;52.164;4.472;2022-09-12T13:24:48;25.47;49.88
66670;DHT22;53568;52.164;4.472;2022-09-12T13:27:22;25.47;50.05
66670;DHT22;53568;52.164;4.472;2022-09-12T13:29:48;25.51;50.10
66670;DHT22;53568;52.164;4.472;2022-09-12T13:32:17;25.56;49.92
66670;DHT22;53568;52.164;4.472;2022-09-12T13:35:10;25.66;50.00
66670;DHT22;53568;52.164;4.472;2022-09-12T13:38:04;25.61;50.52
66670;DHT22;53568;52.164;4.472;2022-09-12T13:40:32;25.71;49.43
66670;DHT22;53568;52.164;4.472;2022-09-12T13:43:30;25.67;47.81
66670;DHT22;53568;52.164;4.472;2022-09-12T13:46:00;25.54;47.50
66670;DHT22;53568;52.164;4.472;2022-09-12T13:48:26;25.43;48.68
66670;DHT22;53568;52.164;4.472;2022-09-12T13:50:57;25.49;49.14
66670;DHT22;53568;52.164;4.472;2022-09-12T13:53:28;25.41;49.98
66670;DHT22;53568;52.164;4.472;2022-09-12T13:55:58;25.50;50.01
66670;DHT22;53568;52.164;4.472;2022-09-12T13:58:27;25.56;49.26
66670;DHT22;53568;52.164;4.472;2022-09-12T14:01:19;25.59;48.57
66670;DHT22;53568;52.164;4.472;2022-09-12T14:03:55;25.66;47.99
66670;DHT22;53568;52.164;4.472;2022-09-12T14:06:49;25.69;48.84
66670;DHT22;53568;52.164;4.472;2022-09-12T14:09:23;25.77;48.36
66670;DHT22;53568;52.164;4.472;2022-09-12T14:11:51;25.73;48.54
66670;DHT22;53568;52.164;4.472;2022-09-12T14:14:26;25.67;48.93
66670;DHT22;53568;52.164;4.472;2022-09-12T14:16:54;25.56;49.29
66670;DHT22;53568;52.164;4.472;2022-09-12T14:19:22;25.59;48.31
66670;DHT22;53568;52.164;4.472;2022-09-12T14:21:52;25.63;48.47
66670;DHT22;53568;52.164;4.472;2022-09-12T14:24:19;25.64;47.95
66670;DHT22;53568;52.164;4.472;2022-09-12T14:26:50;25.57;47.45
66670;DHT22;53568;52.164;4.472;2022-09-12T14:29:18;25.59;47.37
66670;DHT22;53568;52.164;4.472;2022-09-12T14:31:44;25.63;47.72
66670;DHT22;53568;52.164;4.472;2022-09-12T14:34:15;25.47;47.84
66670;DHT22;53568;52.164;4.472;2022-09-12T14:36:48;25.49;48.21
66670;DHT22;53568;52.164;4.472;2022-09-12T14:41:40;25.63;47.11
66670;DHT22;53568;52.164;4.472;2022-09-12T14:44:15;25.59;47.33
66670;DHT22;53568;52.164;4.472;2022-09-12T14:46:43;25.67;47.77
66670;DHT22;53568;52.164;4.472;2022-09-12T14:49:33;25.81;47.66
66670;DHT22;53568;52.164;4.472;2022-09-12T14:52:04;25.77;48.80
66670;DHT22;53568;52.164;4.472;2022-09-12T15:04:52;25.78;47.34
66670;DHT22;53568;52.164;4.472;2022-09-12T15:09:54;25.95;46.83
66670;DHT22;53568;52.164;4.472;2022-09-12T15:12:22;25.95;47.21
66670;DHT22;53568;52.164;4.472;2022-09-12T15:14:48;25.91;47.43
66670;DHT22;53568;52.164;4.472;2022-09-12T15:17:14;25.91;47.39
66670;DHT22;53568;52.164;4.472;2022-09-12T15:19:39;26.07;47.20
66670;DHT22;53568;52.164;4.472;2022-09-12T15:22:05;25.97;47.59
66670;DHT22;53568;52.164;4.472;2022-09-12T15:24:30;25.90;48.15
66670;DHT22;53568;52.164;4.472;2022-09-12T15:26:56;25.85;48.19
66670;DHT22;53568;52.164;4.472;2022-09-12T15:29:22;25.73;48.62
66670;DHT22;53568;52.164;4.472;2022-09-12T15:31:50;25.66;49.29
66670;DHT22;53568;52.164;4.472;2022-09-12T15:34:15;25.46;49.06
66670;DHT22;53568;52.164;4.472;2022-09-12T15:36:41;25.50;49.60
66670;DHT22;53568;52.164;4.472;2022-09-12T15:39:08;25.41;50.19
66670;DHT22;53568;52.164;4.472;2022-09-12T15:41:36;25.44;49.97
66670;DHT22;53568;52.164;4.472;2022-09-12T15:44:03;25.33;49.85
66670;DHT22;53568;52.164;4.472;2022-09-12T15:46:29;25.41;49.88
66670;DHT22;53568;52.164;4.472;2022-09-12T15:48:55;25.44;49.54
66670;DHT22;53568;52.164;4.472;2022-09-12T15:51:21;25.46;49.91
66670;DHT22;53568;52.164;4.472;2022-09-12T15:53:49;25.53;50.40
66670;DHT22;53568;52.164;4.472;2022-09-12T15:56:17;25.59;50.59
66670;DHT22;53568;52.164;4.472;2022-09-12T15:58:43;25.61;51.17
66670;DHT22;53568;52.164;4.472;2022-09-12T16:01:11;25.57;50.42
66670;DHT22;53568;52.164;4.472;2022-09-12T16:03:37;25.63;50.78
66670;DHT22;53568;52.164;4.472;2022-09-12T16:06:03;25.69;50.78
66670;DHT22;53568;52.164;4.472;2022-09-12T16:08:30;25.59;50.08
66670;DHT22;53568;52.164;4.472;2022-09-12T16:11:06;25.50;50.03
66670;DHT22;53568;52.164;4.472;2022-09-12T16:13:32;25.40;50.94
66670;DHT22;53568;52.164;4.472;2022-09-12T16:15:59;25.34;51.09
66670;DHT22;53568;52.164;4.472;2022-09-12T16:18:26;25.40;50.76
66670;DHT22;53568;52.164;4.472;2022-09-12T16:20:53;25.41;51.14
66670;DHT22;53568;52.164;4.472;2022-09-12T16:23:19;25.44;51.12
66670;DHT22;53568;52.164;4.472;2022-09-12T16:25:45;25.37;50.90
66670;DHT22;53568;52.164;4.472;2022-09-12T16:28:11;25.36;51.15
66670;DHT22;53568;52.164;4.472;2022-09-12T16:30:36;25.36;51.25
66670;DHT22;53568;52.164;4.472;2022-09-12T16:33:02;25.31;50.86
66670;DHT22;53568;52.164;4.472;2022-09-12T16:35:30;25.33;51.14
66670;DHT22;53568;52.164;4.472;2022-09-12T16:37:56;25.33;51.28
66670;DHT22;53568;52.164;4.472;2022-09-12T16:40:21;25.24;51.23
66670;DHT22;53568;52.164;4.472;2022-09-12T16:42:48;25.19;51.49
66670;DHT22;53568;52.164;4.472;2022-09-12T16:45:13;25.19;51.65
66670;DHT22;53568;52.164;4.472;2022-09-12T16:47:39;25.19;51.75
66670;DHT22;53568;52.164;4.472;2022-09-12T16:50:05;25.22;51.90
66670;DHT22;53568;52.164;4.472;2022-09-12T16:52:33;25.18;51.77
66670;DHT22;53568;52.164;4.472;2022-09-12T16:54:58;25.18;52.13
66670;DHT22;53568;52.164;4.472;2022-09-12T16:57:24;25.22;52.34
66670;DHT22;53568;52.164;4.472;2022-09-12T16:59:49;25.24;52.10
66670;DHT22;53568;52.164;4.472;2022-09-12T17:02:15;25.26;52.20
66670;DHT22;53568;52.164;4.472;2022-09-12T17:04:40;25.26;52.20
66670;DHT22;53568;52.164;4.472;2022-09-12T17:07:06;25.24;52.34
66670;DHT22;53568;52.164;4.472;2022-09-12T17:09:32;25.24;52.52
66670;DHT22;53568;52.164;4.472;2022-09-12T17:11:58;25.23;52.53
66670;DHT22;53568;52.164;4.472;2022-09-12T17:14:24;25.24;52.38
66670;DHT22;53568;52.164;4.472;2022-09-12T17:16:51;25.23;52.45
66670;DHT22;53568;52.164;4.472;2022-09-12T17:19:23;25.20;52.76
66670;DHT22;53568;52.164;4.472;2022-09-12T17:21:51;25.27;53.08
66670;DHT22;53568;52.164;4.472;2022-09-12T17:24:17;25.23;53.23
66670;DHT22;53568;52.164;4.472;2022-09-12T17:26:43;25.16;53.25
66670;DHT22;53568;52.164;4.472;2022-09-12T17:29:13;25.18;53.15
66670;DHT22;53568;52.164;4.472;2022-09-12T17:31:39;25.16;53.11
66670;DHT22;53568;52.164;4.472;2022-09-12T17:34:05;25.16;53.03
66670;DHT22;53568;52.164;4.472;2022-09-12T17:36:32;25.10;53.46
66670;DHT22;53568;52.164;4.472;2022-09-12T17:39:00;25.08;53.31
66670;DHT22;53568;52.164;4.472;2022-09-12T17:41:27;25.03;53.27
66670;DHT22;53568;52.164;4.472;2022-09-12T17:43:55;25.02;53.19
66670;DHT22;53568;52.164;4.472;2022-09-12T17:46:36;25.03;53.60
66670;DHT22;53568;52.164;4.472;2022-09-12T17:49:05;25.00;53.74
66670;DHT22;53568;52.164;4.472;2022-09-12T17:51:31;24.95;53.74
66670;DHT22;53568;52.164;4.472;2022-09-12T17:54:10;24.99;53.77
66670;DHT22;53568;52.164;4.472;2022-09-12T17:56:36;24.97;53.67
66670;DHT22;53568;52.164;4.472;2022-09-12T17:59:04;24.96;54.03
66670;DHT22;53568;52.164;4.472;2022-09-12T18:01:30;25.00;53.76
66670;DHT22;53568;52.164;4.472;2022-09-12T18:04:15;25.00;53.72
66670;DHT22;53568;52.164;4.472;2022-09-12T18:06:42;24.97;53.45
66670;DHT22;53568;52.164;4.472;2022-09-12T18:09:14;24.93;53.51
66670;DHT22;53568;52.164;4.472;2022-09-12T18:11:40;24.86;53.85
66670;DHT22;53568;52.164;4.472;2022-09-12T18:14:06;24.77;54.13
66670;DHT22;53568;52.164;4.472;2022-09-12T18:16:31;24.75;54.58
66670;DHT22;53568;52.164;4.472;2022-09-12T18:18:57;24.69;54.95
66670;DHT22;53568;52.164;4.472;2022-09-12T18:21:26;24.64;55.13